createdAt,value
2019-05-12T00:00:01.801Z,1009.94
2019-05-12T00:05:01.998Z,1010
2019-05-12T00:10:01.138Z,1010.09
2019-05-12T00:15:01.274Z,1010.17
2019-05-12T00:20:01.445Z,1010.23
2019-05-12T00:25:01.573Z,1010.26
2019-05-12T00:30:01.707Z,1010.31
2019-05-12T00:35:01.875Z,1010.4
2019-05-12T00:40:02.185Z,1010.47
2019-05-12T00:45:01.320Z,1010.49
2019-05-12T00:50:01.472Z,1010.62
2019-05-12T00:55:01.708Z,1010.78
2019-05-12T01:00:01.979Z,1010.92
2019-05-12T01:05:01.281Z,1010.98
2019-05-12T01:10:04.862Z,1011.09
2019-05-12T01:15:01.210Z,1011.13
2019-05-12T01:20:01.409Z,1011.13
2019-05-12T01:25:01.508Z,1011.17
2019-05-12T01:30:01.640Z,1011.35
2019-05-12T01:35:01.811Z,1011.39
2019-05-12T01:40:01.980Z,1011.45
2019-05-12T01:45:02.123Z,1011.52
2019-05-12T01:50:01.270Z,1011.56
2019-05-12T01:55:01.409Z,1011.6
2019-05-12T02:00:01.529Z,1011.73
2019-05-12T02:05:01.700Z,1011.79
2019-05-12T02:10:01.253Z,1011.89
2019-05-12T02:15:01.396Z,1011.88
2019-05-12T02:20:01.547Z,1011.9
2019-05-12T02:25:01.654Z,1012.03
2019-05-12T02:30:01.750Z,1012.15
2019-05-12T02:35:05.567Z,1012.23
2019-05-12T02:40:04.809Z,1012.21
2019-05-12T02:45:01.137Z,1012.34
2019-05-12T02:50:01.265Z,1012.48
2019-05-12T02:55:05.449Z,1012.5
2019-05-12T03:00:04.728Z,1012.59
2019-05-12T03:05:01.352Z,1012.56
2019-05-12T03:10:04.589Z,1012.71
2019-05-12T03:15:01.307Z,1012.75
2019-05-12T03:20:04.683Z,1012.71
2019-05-12T03:25:11.341Z,1012.73
2019-05-12T03:30:09.812Z,1012.72
2019-05-12T03:35:01.319Z,1012.84
2019-05-12T03:40:01.481Z,1012.91
2019-05-12T03:45:04.449Z,1012.93
2019-05-12T03:50:04.558Z,1013.02
2019-05-12T03:55:05.378Z,1013.08
2019-05-12T04:00:04.962Z,1013.06
2019-05-12T04:05:04.929Z,1013.26
2019-05-12T04:10:04.866Z,1013.33
2019-05-12T04:15:04.782Z,1013.38
2019-05-12T04:20:04.532Z,1013.47
2019-05-12T04:25:05.550Z,1013.56
2019-05-12T04:30:01.166Z,1013.65
2019-05-12T04:35:04.547Z,1013.74
2019-05-12T04:40:05.133Z,1013.89
2019-05-12T04:45:04.421Z,1014.05
2019-05-12T04:50:05.113Z,1014.1
2019-05-12T04:55:04.447Z,1014.28
2019-05-12T05:00:04.815Z,1014.29
2019-05-12T05:05:01.298Z,1014.45
2019-05-12T05:10:04.587Z,1014.49
2019-05-12T05:15:01.939Z,1014.57
2019-05-12T05:20:04.115Z,1014.74
2019-05-12T05:25:01.351Z,1014.8
2019-05-12T05:30:03.790Z,1014.83
2019-05-12T05:35:03.991Z,1014.85
2019-05-12T05:40:03.904Z,1014.9
2019-05-12T05:45:01.215Z,1014.96
2019-05-12T05:50:01.356Z,1015.09
2019-05-12T05:55:05.911Z,1015.19
2019-05-12T06:00:07.263Z,1015.34
2019-05-12T06:05:04.237Z,1015.42
2019-05-12T06:10:03.965Z,1015.41
2019-05-12T06:15:01.260Z,1015.37
2019-05-12T06:20:01.431Z,1015.45
2019-05-12T06:25:04.536Z,1015.46
2019-05-12T06:30:06.024Z,1015.45
2019-05-12T06:35:04.362Z,1015.53
2019-05-12T06:40:03.583Z,1015.57
2019-05-12T06:45:03.736Z,1015.6
2019-05-12T06:50:03.879Z,1015.74
2019-05-12T06:55:03.783Z,1015.93
2019-05-12T07:00:01.247Z,1015.96
2019-05-12T07:05:04.125Z,1016
2019-05-12T07:10:08.027Z,1016.02
2019-05-12T07:15:03.757Z,1016.09
2019-05-12T07:20:01.193Z,1016.19
2019-05-12T07:25:01.340Z,1016.11
2019-05-12T07:30:01.487Z,1016.19
2019-05-12T07:35:03.723Z,1016.21
2019-05-12T07:40:04.640Z,1016.25
2019-05-12T07:45:03.922Z,1016.32
2019-05-12T07:50:01.253Z,1016.28
2019-05-12T07:55:01.438Z,1016.3
2019-05-12T08:00:03.588Z,1016.2
2019-05-12T08:05:03.875Z,1016.27
2019-05-12T08:10:07.237Z,1016.32
2019-05-12T08:15:05.416Z,1016.34
2019-05-12T08:20:01.327Z,1016.33
2019-05-12T08:25:04.032Z,1016.39
2019-05-12T08:30:03.135Z,1016.48
2019-05-12T08:35:01.213Z,1016.45
2019-05-12T08:40:04.278Z,1016.47
2019-05-12T08:45:03.896Z,1016.5
2019-05-12T08:50:04.604Z,1016.55
2019-05-12T08:55:04.272Z,1016.58
2019-05-12T09:00:03.359Z,1016.66
2019-05-12T09:05:04.450Z,1016.69
2019-05-12T09:10:04.003Z,1016.61
2019-05-12T09:15:01.318Z,1016.68
2019-05-12T09:20:05.243Z,1016.72
2019-05-12T09:25:06.235Z,1016.69
2019-05-12T09:30:08.072Z,1016.68
2019-05-12T09:35:03.805Z,1016.72
2019-05-12T09:40:01.202Z,1016.69
2019-05-12T09:45:06.065Z,1016.7
2019-05-12T09:50:01.228Z,1016.71
2019-05-12T09:55:01.380Z,1016.76
2019-05-12T10:00:04.263Z,1016.72
2019-05-12T10:05:03.767Z,1016.9
2019-05-12T10:10:03.687Z,1016.92
2019-05-12T10:15:04.070Z,1017
2019-05-12T10:20:01.501Z,1016.96
2019-05-12T10:25:03.908Z,1017.04
2019-05-12T10:30:05.636Z,1017.1
2019-05-12T10:35:02.015Z,1017.06
2019-05-12T10:40:03.561Z,1017.09
2019-05-12T10:45:04.179Z,1017.07
2019-05-12T10:50:01.533Z,1017.12
2019-05-12T10:55:01.680Z,1017.04
2019-05-12T11:00:04.131Z,1017
2019-05-12T11:05:01.461Z,1017.08
2019-05-12T11:10:05.572Z,1017.03
2019-05-12T11:15:13.434Z,1017.02
2019-05-12T11:20:04.111Z,1016.96
2019-05-12T11:25:04.096Z,1017.05
2019-05-12T11:30:04.116Z,1017.05
2019-05-12T11:35:03.868Z,1017.08
2019-05-12T11:40:01.313Z,1017.07
2019-05-12T11:45:01.445Z,1017.12
2019-05-12T11:50:05.215Z,1017.14
2019-05-12T11:55:01.662Z,1017.18
2019-05-12T12:00:02.498Z,1017.2
2019-05-12T12:05:01.355Z,1017.19
2019-05-12T12:10:03.576Z,1017.17
2019-05-12T12:15:04.153Z,1017.27
2019-05-12T12:20:03.722Z,1017.19
2019-05-12T12:25:02.929Z,1017.17
2019-05-12T12:30:13.682Z,1017.18
2019-05-12T12:35:07.279Z,1017.32
2019-05-12T12:40:04.078Z,1017.33
2019-05-12T12:45:04.055Z,1017.34
2019-05-12T12:50:01.422Z,1017.29
2019-05-12T12:55:05.366Z,1017.38
2019-05-12T13:00:03.669Z,1017.39
2019-05-12T13:05:01.991Z,1017.36
2019-05-12T13:10:04.590Z,1017.44
2019-05-12T13:15:01.241Z,1017.4
2019-05-12T13:20:01.573Z,1017.36
2019-05-12T13:25:06.502Z,1017.41
2019-05-12T13:30:02.283Z,1017.4
2019-05-12T13:35:01.417Z,1017.44
2019-05-12T13:40:01.655Z,1017.27
2019-05-12T13:45:03.713Z,1017.4
2019-05-12T13:50:03.914Z,1017.38
2019-05-12T13:55:05.427Z,1017.52
2019-05-12T14:00:08.648Z,1017.58
2019-05-12T14:05:07.256Z,1017.67
2019-05-12T14:10:03.543Z,1017.48
2019-05-12T14:15:01.880Z,1017.47
2019-05-12T14:20:04.022Z,1017.47
2019-05-12T14:25:02.214Z,1017.55
2019-05-12T14:30:09.511Z,1017.72
2019-05-12T14:35:01.641Z,1017.74
2019-05-12T14:40:03.970Z,1017.59
2019-05-12T14:45:01.684Z,1017.64
2019-05-12T14:50:03.889Z,1017.64
2019-05-12T14:55:03.328Z,1017.71
2019-05-12T15:00:03.825Z,1017.74
2019-05-12T15:05:06.691Z,1017.7
2019-05-12T15:10:07.184Z,1017.66
2019-05-12T15:15:03.672Z,1017.7
2019-05-12T15:20:06.544Z,1017.72
2019-05-12T15:25:04.858Z,1017.69
2019-05-12T15:30:04.031Z,1017.7
2019-05-12T15:35:01.377Z,1017.78
2019-05-12T15:40:04.158Z,1017.84
2019-05-12T15:45:06.636Z,1017.84
2019-05-12T15:50:03.871Z,1017.86
2019-05-12T15:55:01.260Z,1017.84
2019-05-12T16:00:01.387Z,1017.91
2019-05-12T16:05:03.951Z,1017.97
2019-05-12T16:10:04.076Z,1018.04
2019-05-12T16:15:01.504Z,1018
2019-05-12T16:20:03.700Z,1018.02
2019-05-12T16:25:04.148Z,1018.06
2019-05-12T16:30:01.518Z,1018.02
2019-05-12T16:35:05.101Z,1018.09
2019-05-12T16:40:04.310Z,1018.08
2019-05-12T16:45:06.043Z,1018.11
2019-05-12T16:50:08.475Z,1018.11
2019-05-12T16:55:03.634Z,1018.13
2019-05-12T17:00:03.613Z,1018.12
2019-05-12T17:05:08.963Z,1018.14
2019-05-12T17:10:16.227Z,1018.13
2019-05-12T17:15:04.085Z,1018.23
2019-05-12T17:20:01.345Z,1018.23
2019-05-12T17:25:01.476Z,1018.23
2019-05-12T17:30:01.627Z,1018.32
2019-05-12T17:35:04.039Z,1018.35
2019-05-12T17:40:03.584Z,1018.47
2019-05-12T17:45:03.827Z,1018.51
2019-05-12T17:50:06.905Z,1018.49
2019-05-12T17:55:05.728Z,1018.56
2019-05-12T18:00:08.611Z,1018.66
2019-05-12T18:05:06.846Z,1018.65
2019-05-12T18:10:04.073Z,1018.61
2019-05-12T18:15:04.004Z,1018.64
2019-05-12T18:20:03.918Z,1018.65
2019-05-12T18:25:04.096Z,1018.68
2019-05-12T18:30:04.316Z,1018.72
2019-05-12T18:35:04.072Z,1018.69
2019-05-12T18:40:03.944Z,1018.79
2019-05-12T18:45:11.352Z,1018.84
2019-05-12T18:50:01.562Z,1018.89
2019-05-12T18:55:01.705Z,1018.92
2019-05-12T19:00:05.760Z,1019
2019-05-12T19:05:01.345Z,1019.08
2019-05-12T19:10:03.609Z,1019.09
2019-05-12T19:15:04.464Z,1019.19
2019-05-12T19:20:01.866Z,1019.23
2019-05-12T19:25:04.021Z,1019.25
2019-05-12T19:30:01.326Z,1019.34
2019-05-12T19:35:03.623Z,1019.41
2019-05-12T19:40:04.028Z,1019.55
2019-05-12T19:45:06.783Z,1019.55
2019-05-12T19:50:06.912Z,1019.62
2019-05-12T19:55:03.505Z,1019.65
2019-05-12T20:00:04.360Z,1019.67
2019-05-12T20:05:04.398Z,1019.65
2019-05-12T20:10:04.476Z,1019.59
2019-05-12T20:15:04.030Z,1019.62
2019-05-12T20:20:01.309Z,1019.67
2019-05-12T20:25:04.065Z,1019.7
2019-05-12T20:30:08.882Z,1019.8
2019-05-12T20:35:01.121Z,1019.7
2019-05-12T20:40:04.397Z,1019.74
2019-05-12T20:45:02.544Z,1019.82
2019-05-12T20:50:01.163Z,1019.87
2019-05-12T20:55:03.490Z,1019.89
2019-05-12T21:00:04.860Z,1019.91
2019-05-12T21:05:03.905Z,1019.97
2019-05-12T21:10:03.921Z,1019.99
2019-05-12T21:15:13.788Z,1020.02
2019-05-12T21:20:01.319Z,1020.04
2019-05-12T21:25:04.002Z,1020.12
2019-05-12T21:30:09.977Z,1020.13
2019-05-12T21:35:15.811Z,1020.16
2019-05-12T21:40:03.561Z,1020.2
2019-05-12T21:45:01.211Z,1020.22
2019-05-12T21:50:03.381Z,1020.24
2019-05-12T21:55:06.020Z,1020.28
2019-05-12T22:00:01.398Z,1020.29
2019-05-12T22:05:04.006Z,1020.33
2019-05-12T22:10:01.393Z,1020.36
2019-05-12T22:15:03.793Z,1020.42
2019-05-12T22:20:06.165Z,1020.46
2019-05-12T22:25:01.672Z,1020.54
2019-05-12T22:30:04.267Z,1020.58
2019-05-12T22:35:03.905Z,1020.65
2019-05-12T22:40:07.522Z,1020.67
2019-05-12T22:45:02.975Z,1020.63
2019-05-12T22:50:04.158Z,1020.72
2019-05-12T22:55:03.632Z,1020.8
2019-05-12T23:00:03.989Z,1020.89
2019-05-12T23:05:03.539Z,1020.85
2019-05-12T23:10:06.957Z,1020.85
2019-05-12T23:20:04.646Z,1020.94
2019-05-12T23:25:03.947Z,1021.02
2019-05-12T23:30:07.316Z,1020.95
2019-05-12T23:35:03.840Z,1020.98
2019-05-12T23:40:04.164Z,1021.05
2019-05-12T23:45:03.486Z,1021.03
2019-05-12T23:50:04.072Z,1020.98
2019-05-12T23:55:01.295Z,1020.97
